Time;durP1;ratioP1;P1;durP2;ratioP2;P2;SDS_P1;SDS_P2;PMS_P1;PMS_P2;Temp;Humidity;BMP_temperature;BMP_pressure;BME280_temperature;BME280_humidity;BME280_pressure;Samples;Min_cycle;Max_cycle;Signal;HPM_P1;HPM_P2
2021/07/05 00:01:22;;;;;;;9.77;6.35;;;;;;;;;;5095234;28;20031;-73
2021/07/05 00:03:47;;;;;;;11.50;6.43;;;;;;;;;;5095223;28;20460;-73
2021/07/05 00:06:13;;;;;;;12.15;7.00;;;;;;;;;;5095339;28;20103;-75
2021/07/05 00:08:51;;;;;;;9.13;5.97;;;;;;;;;;5094909;28;20066;-75
2021/07/05 00:11:16;;;;;;;7.35;5.82;;;;;;;;;;5075559;28;20025;-75
2021/07/05 00:13:42;;;;;;;8.70;5.85;;;;;;;;;;5074688;28;20035;-75
2021/07/05 00:16:08;;;;;;;7.28;6.07;;;;;;;;;;5074867;28;20024;-75
2021/07/05 00:18:33;;;;;;;6.85;6.10;;;;;;;;;;5075024;28;20024;-75
2021/07/05 00:20:59;;;;;;;9.93;6.38;;;;;;;;;;5074442;28;20495;-75
2021/07/05 00:23:26;;;;;;;7.60;6.18;;;;;;;;;;5092387;28;20050;-75
2021/07/05 00:25:52;;;;;;;7.88;6.15;;;;;;;;;;5094797;28;20059;-75
2021/07/05 00:28:17;;;;;;;8.55;7.20;;;;;;;;;;5094666;28;20043;-75
2021/07/05 00:30:59;;;;;;;8.88;7.88;;;;;;;;;;5094787;28;20486;-75
2021/07/05 00:33:24;;;;;;;13.20;9.25;;;;;;;;;;5094605;28;20020;-75
2021/07/05 00:35:51;;;;;;;12.45;9.45;;;;;;;;;;5094466;28;20027;-75
2021/07/05 00:38:17;;;;;;;15.27;10.07;;;;;;;;;;5093164;28;20032;-75
2021/07/05 00:40:42;;;;;;;14.32;10.60;;;;;;;;;;5079530;28;20495;-75
2021/07/05 00:43:12;;;;;;;14.15;9.60;;;;;;;;;;5081146;28;20543;-75
2021/07/05 00:45:38;;;;;;;17.05;10.13;;;;;;;;;;5094334;28;20020;-75
2021/07/05 00:48:04;;;;;;;13.80;10.32;;;;;;;;;;5093551;28;20494;-75
2021/07/05 00:50:37;;;;;;;15.80;9.75;;;;;;;;;;5093793;28;20020;-74
2021/07/05 00:53:03;;;;;;;15.05;11.00;;;;;;;;;;5094185;28;20058;-74
2021/07/05 00:55:32;;;;;;;16.63;10.48;;;;;;;;;;5094087;28;20034;-75
2021/07/05 00:58:13;;;;;;;14.10;9.52;;;;;;;;;;5094226;28;20020;-75
2021/07/05 01:00:39;;;;;;;15.40;8.73;;;;;;;;;;5093996;28;20024;-75
2021/07/05 01:03:05;;;;;;;11.10;9.55;;;;;;;;;;5093941;28;20032;-75
2021/07/05 01:05:33;;;;;;;15.82;10.35;;;;;;;;;;5093826;28;20036;-75
2021/07/05 01:07:59;;;;;;;18.17;10.65;;;;;;;;;;5093648;28;20028;-75
2021/07/05 01:10:44;;;;;;;17.33;11.70;;;;;;;;;;5081712;28;20021;-75
2021/07/05 01:13:09;;;;;;;19.77;11.85;;;;;;;;;;5073596;28;20036;-75
2021/07/05 01:15:35;;;;;;;20.23;11.18;;;;;;;;;;5073718;28;20029;-75
2021/07/05 01:18:06;;;;;;;16.73;11.10;;;;;;;;;;5073187;28;20426;-75
2021/07/05 01:20:34;;;;;;;14.73;9.95;;;;;;;;;;5092103;28;20032;-75
2021/07/05 01:23:00;;;;;;;12.05;9.45;;;;;;;;;;5093739;28;20024;-75
2021/07/05 01:25:44;;;;;;;15.15;9.18;;;;;;;;;;5093752;28;20084;-75
2021/07/05 01:28:44;;;;;;;10.73;8.05;;;;;;;;;;5093519;28;20119;-75
2021/07/05 01:31:09;;;;;;;9.27;6.75;;;;;;;;;;5073376;28;20030;-75
2021/07/05 01:33:34;;;;;;;9.82;6.65;;;;;;;;;;5073392;28;20025;-75
2021/07/05 01:36:08;;;;;;;9.15;6.57;;;;;;;;;;5073318;28;20490;-75
2021/07/05 01:38:34;;;;;;;6.47;5.60;;;;;;;;;;5077915;28;20026;-75
2021/07/05 01:41:28;;;;;;;7.20;6.10;;;;;;;;;;5074366;28;20028;-75
2021/07/05 01:43:54;;;;;;;5.97;5.38;;;;;;;;;;5073036;28;20021;-75
2021/07/05 01:46:19;;;;;;;6.57;5.72;;;;;;;;;;5073282;28;20452;-75
2021/07/05 01:48:46;;;;;;;8.57;5.50;;;;;;;;;;5082815;28;20069;-76
2021/07/05 01:51:12;;;;;;;6.70;5.70;;;;;;;;;;5092175;28;20024;-72
2021/07/05 01:53:37;;;;;;;7.30;5.53;;;;;;;;;;5093363;28;20384;-72
2021/07/05 01:56:10;;;;;;;10.18;6.70;;;;;;;;;;5093333;28;20020;-72
2021/07/05 01:58:36;;;;;;;8.45;5.15;;;;;;;;;;5093044;28;20028;-72
2021/07/05 02:01:01;;;;;;;7.70;5.20;;;;;;;;;;5091374;28;20032;-72
2021/07/05 02:03:27;;;;;;;7.07;5.45;;;;;;;;;;5093246;28;20020;-72
2021/07/05 02:05:53;;;;;;;8.70;6.30;;;;;;;;;;5078223;28;20048;-72
2021/07/05 02:08:18;;;;;;;14.05;6.80;;;;;;;;;;5072839;28;20040;-72
2021/07/05 02:10:46;;;;;;;9.52;7.30;;;;;;;;;;5085048;28;20024;-72
2021/07/05 02:13:27;;;;;;;9.05;7.55;;;;;;;;;;5093096;28;20156;-72
2021/07/05 02:15:54;;;;;;;10.95;7.97;;;;;;;;;;5093064;28;20043;-72
2021/07/05 02:18:25;;;;;;;14.50;9.13;;;;;;;;;;5093074;28;20033;-72
2021/07/05 02:20:51;;;;;;;16.00;9.80;;;;;;;;;;5092644;28;20229;-72
2021/07/05 02:23:19;;;;;;;13.93;8.63;;;;;;;;;;5093042;28;20131;-72
2021/07/05 02:26:05;;;;;;;13.20;9.27;;;;;;;;;;5093163;28;20073;-72
2021/07/05 02:28:50;;;;;;;12.65;8.60;;;;;;;;;;5092823;28;20451;-72
2021/07/05 02:31:15;;;;;;;11.50;8.60;;;;;;;;;;5091939;28;20059;-73
2021/07/05 02:33:58;;;;;;;9.65;7.75;;;;;;;;;;5093002;28;20024;-73
2021/07/05 02:36:23;;;;;;;14.85;7.55;;;;;;;;;;5093000;28;20442;-72
2021/07/05 02:38:49;;;;;;;12.43;7.40;;;;;;;;;;5092753;28;20059;-73
2021/07/05 02:41:48;;;;;;;12.68;6.97;;;;;;;;;;5092778;28;20032;-72
2021/07/05 02:44:14;;;;;;;12.85;7.53;;;;;;;;;;5072305;28;20078;-72
2021/07/05 02:46:41;;;;;;;11.15;6.90;;;;;;;;;;5072685;28;20033;-72
2021/07/05 02:49:20;;;;;;;11.45;7.93;;;;;;;;;;5072591;28;20032;-73
2021/07/05 02:51:46;;;;;;;13.38;7.45;;;;;;;;;;5072537;28;20033;-72
2021/07/05 02:54:11;;;;;;;15.18;7.55;;;;;;;;;;5091879;28;20032;-71
2021/07/05 02:56:38;;;;;;;10.57;7.80;;;;;;;;;;5092618;28;20051;-72
2021/07/05 02:59:03;;;;;;;9.75;7.45;;;;;;;;;;5092025;28;20027;-72
2021/07/05 03:01:29;;;;;;;9.35;7.47;;;;;;;;;;5084489;28;20361;-72
2021/07/05 03:07:17;;;;;;;8.68;6.82;;;;;;;;;;5092871;28;20039;-73
2021/07/05 03:09:43;;;;;;;13.73;7.05;;;;;;;;;;5093188;28;20012;-73
2021/07/05 03:12:12;;;;;;;11.27;6.65;;;;;;;;;;5096070;28;20027;-73
2021/07/05 03:14:37;;;;;;;8.38;6.32;;;;;;;;;;5096025;28;20490;-72
2021/07/05 03:17:06;;;;;;;11.27;6.13;;;;;;;;;;5096033;28;20020;-73
2021/07/05 03:19:32;;;;;;;10.82;6.53;;;;;;;;;;5096237;28;20361;-73
2021/07/05 03:21:57;;;;;;;8.15;6.18;;;;;;;;;;5096032;28;20031;-72
2021/07/05 03:24:23;;;;;;;11.25;7.90;;;;;;;;;;5077700;28;20024;-71
2021/07/05 03:26:48;;;;;;;12.88;7.72;;;;;;;;;;5095932;28;20477;-72
2021/07/05 03:29:34;;;;;;;12.27;7.55;;;;;;;;;;5094987;28;20097;-72
2021/07/05 03:32:05;;;;;;;14.57;7.50;;;;;;;;;;5095717;28;20048;-72
2021/07/05 03:34:32;;;;;;;14.80;7.40;;;;;;;;;;5095501;28;20032;-79
2021/07/05 03:37:17;;;;;;;9.50;7.50;;;;;;;;;;5095694;28;20027;-79
2021/07/05 03:39:43;;;;;;;10.05;7.05;;;;;;;;;;5095588;28;20050;-79
2021/07/05 03:42:09;;;;;;;10.25;6.45;;;;;;;;;;5095622;28;20475;-78
2021/07/05 03:44:45;;;;;;;8.25;6.15;;;;;;;;;;5094406;28;20483;-81
2021/07/05 03:47:11;;;;;;;9.77;5.68;;;;;;;;;;5095849;28;20035;-78
2021/07/05 03:49:48;;;;;;;8.98;5.38;;;;;;;;;;5086094;28;20021;-79
2021/07/05 03:52:13;;;;;;;7.85;4.85;;;;;;;;;;5075357;28;20024;-78
2021/07/05 03:54:44;;;;;;;6.28;5.32;;;;;;;;;;5077245;28;20032;-79
2021/07/05 03:57:21;;;;;;;7.45;4.97;;;;;;;;;;5095205;28;20479;-79
2021/07/05 03:59:49;;;;;;;6.85;5.25;;;;;;;;;;5070166;28;20447;-78
2021/07/05 04:02:14;;;;;;;11.45;5.10;;;;;;;;;;5082845;28;20024;-79
2021/07/05 04:04:40;;;;;;;11.18;5.55;;;;;;;;;;5095326;28;20020;-78
2021/07/05 04:07:05;;;;;;;6.28;5.00;;;;;;;;;;5095055;28;20464;-77
2021/07/05 04:09:36;;;;;;;8.90;5.70;;;;;;;;;;5094953;28;20090;-79
2021/07/05 04:12:02;;;;;;;10.75;4.93;;;;;;;;;;5094660;28;20031;-79
2021/07/05 04:14:27;;;;;;;8.95;5.10;;;;;;;;;;5094795;28;20388;-78
2021/07/05 04:16:58;;;;;;;9.40;5.32;;;;;;;;;;5094956;28;20099;-80
2021/07/05 04:19:24;;;;;;;7.22;4.68;;;;;;;;;;5076700;28;20493;-80
2021/07/05 04:21:49;;;;;;;8.43;5.15;;;;;;;;;;5095193;28;20063;-80
2021/07/05 04:24:18;;;;;;;11.38;4.97;;;;;;;;;;5095431;28;20020;-79
2021/07/05 04:26:44;;;;;;;8.43;5.07;;;;;;;;;;5094807;28;20020;-79
2021/07/05 04:29:10;;;;;;;11.43;5.63;;;;;;;;;;5094251;28;20101;-80
2021/07/05 04:31:43;;;;;;;8.45;4.70;;;;;;;;;;5086844;28;20032;-79
2021/07/05 04:34:09;;;;;;;11.00;5.25;;;;;;;;;;5094991;28;20035;-80
2021/07/05 04:36:37;;;;;;;5.78;4.40;;;;;;;;;;5096365;28;20024;-79
2021/07/05 04:39:04;;;;;;;6.03;4.57;;;;;;;;;;5095402;28;20031;-79
2021/07/05 04:41:30;;;;;;;7.05;4.70;;;;;;;;;;5093507;28;20028;-71
2021/07/05 04:43:56;;;;;;;7.38;4.53;;;;;;;;;;5092212;28;20473;-73
2021/07/05 04:46:23;;;;;;;7.55;4.70;;;;;;;;;;5094028;28;20028;-73
2021/07/05 04:48:49;;;;;;;10.95;5.15;;;;;;;;;;5089220;28;20457;-73
2021/07/05 04:51:20;;;;;;;8.65;4.55;;;;;;;;;;5086419;28;20103;-74
2021/07/05 04:53:45;;;;;;;5.78;4.20;;;;;;;;;;5093885;28;20115;-74
2021/07/05 04:56:19;;;;;;;8.27;4.80;;;;;;;;;;5093382;28;20056;-74
2021/07/05 04:58:45;;;;;;;7.10;4.53;;;;;;;;;;5079807;28;20050;-74
2021/07/05 05:01:10;;;;;;;9.85;4.72;;;;;;;;;;5082422;28;20025;-74
2021/07/05 05:03:39;;;;;;;8.20;3.55;;;;;;;;;;5075836;28;20028;-73
2021/07/05 05:06:05;;;;;;;10.93;4.35;;;;;;;;;;5073808;28;20496;-74
2021/07/05 05:08:30;;;;;;;5.60;3.65;;;;;;;;;;5088047;28;20028;-74
2021/07/05 05:10:57;;;;;;;5.55;3.90;;;;;;;;;;5073617;28;20025;-74
2021/07/05 05:13:22;;;;;;;9.65;4.32;;;;;;;;;;5082525;28;20053;-73
2021/07/05 05:15:48;;;;;;;7.97;4.47;;;;;;;;;;5093944;28;20024;-74
2021/07/05 05:18:36;;;;;;;9.88;3.90;;;;;;;;;;5093686;28;20420;-74
2021/07/05 05:21:02;;;;;;;4.57;3.83;;;;;;;;;;5093644;28;20050;-74
2021/07/05 05:23:27;;;;;;;7.28;4.30;;;;;;;;;;5093412;28;20046;-74
2021/07/05 05:26:22;;;;;;;7.95;4.03;;;;;;;;;;5093786;28;20028;-74
2021/07/05 05:28:49;;;;;;;5.32;3.70;;;;;;;;;;5092782;28;20036;-74
2021/07/05 05:31:15;;;;;;;6.80;3.80;;;;;;;;;;5093398;28;20471;-74
2021/07/05 05:33:41;;;;;;;9.10;3.70;;;;;;;;;;5093035;28;20020;-73
2021/07/05 05:36:06;;;;;;;7.57;3.90;;;;;;;;;;5074658;28;20028;-73
2021/07/05 05:38:32;;;;;;;10.18;3.90;;;;;;;;;;5073427;28;20113;-74
2021/07/05 05:40:57;;;;;;;5.88;3.83;;;;;;;;;;5073164;28;20478;-74
2021/07/05 05:43:41;;;;;;;4.93;3.47;;;;;;;;;;5088787;28;20552;-75
2021/07/05 05:46:14;;;;;;;6.13;3.63;;;;;;;;;;5093332;28;20400;-73
2021/07/05 05:48:39;;;;;;;5.63;3.90;;;;;;;;;;5093285;28;20102;-74
2021/07/05 05:51:16;;;;;;;9.10;4.00;;;;;;;;;;5093275;28;20151;-74
2021/07/05 05:53:43;;;;;;;6.63;4.10;;;;;;;;;;5071615;28;20020;-74
2021/07/05 05:56:09;;;;;;;4.80;3.35;;;;;;;;;;5082090;28;20040;-74
2021/07/05 05:58:40;;;;;;;7.38;3.28;;;;;;;;;;5093197;28;20067;-74
2021/07/05 06:01:06;;;;;;;6.13;3.20;;;;;;;;;;5073311;28;20043;-74
2021/07/05 06:03:31;;;;;;;6.32;4.00;;;;;;;;;;5083423;28;20146;-74
2021/07/05 06:05:57;;;;;;;6.95;3.50;;;;;;;;;;5093210;28;20110;-74
2021/07/05 06:08:23;;;;;;;4.60;3.72;;;;;;;;;;5093095;28;20260;-73
2021/07/05 06:10:52;;;;;;;4.57;3.50;;;;;;;;;;5090588;28;20039;-74
2021/07/05 06:13:17;;;;;;;10.38;4.63;;;;;;;;;;5091021;28;20043;-74
2021/07/05 06:15:44;;;;;;;6.78;3.72;;;;;;;;;;5071546;28;20480;-74
2021/07/05 06:18:09;;;;;;;6.65;4.20;;;;;;;;;;5072704;28;20028;-74
2021/07/05 06:20:35;;;;;;;7.35;3.50;;;;;;;;;;5076175;28;20012;-74
2021/07/05 06:23:06;;;;;;;6.25;3.45;;;;;;;;;;5092664;28;20028;-74
2021/07/05 06:25:31;;;;;;;7.60;3.60;;;;;;;;;;5092494;28;20379;-74
2021/07/05 06:28:09;;;;;;;7.40;2.97;;;;;;;;;;5092050;28;20123;-73
2021/07/05 06:30:35;;;;;;;6.15;3.40;;;;;;;;;;5073901;28;20031;-75
2021/07/05 06:33:01;;;;;;;4.68;3.17;;;;;;;;;;5092622;28;20020;-74
2021/07/05 06:35:32;;;;;;;5.55;3.20;;;;;;;;;;5092252;28;20229;-74
2021/07/05 06:37:58;;;;;;;5.13;2.97;;;;;;;;;;5075027;28;20032;-75
2021/07/05 06:40:25;;;;;;;7.88;3.30;;;;;;;;;;5077099;28;20019;-74
2021/07/05 06:42:52;;;;;;;6.07;2.90;;;;;;;;;;5072969;28;20087;-74
2021/07/05 06:45:17;;;;;;;5.18;3.45;;;;;;;;;;5094302;28;20039;-74
2021/07/05 06:47:43;;;;;;;4.43;2.85;;;;;;;;;;5095996;28;20028;-71
2021/07/05 06:50:15;;;;;;;8.48;3.42;;;;;;;;;;5095791;28;20016;-71
2021/07/05 06:52:41;;;;;;;7.55;3.40;;;;;;;;;;5078276;28;20378;-72
2021/07/05 06:55:07;;;;;;;7.03;3.13;;;;;;;;;;5097389;28;20028;-74
2021/07/05 06:57:41;;;;;;;5.45;2.95;;;;;;;;;;5096041;28;20020;-75
2021/07/05 07:00:15;;;;;;;4.78;3.00;;;;;;;;;;5077040;28;20036;-76
2021/07/05 07:02:41;;;;;;;5.32;3.30;;;;;;;;;;5093526;28;20107;-76
2021/07/05 07:05:23;;;;;;;4.93;3.00;;;;;;;;;;5091679;28;20490;-74
2021/07/05 07:07:51;;;;;;;9.27;3.22;;;;;;;;;;5078443;28;20034;-76
2021/07/05 07:10:24;;;;;;;5.10;3.10;;;;;;;;;;5087704;28;20025;-75
2021/07/05 07:12:54;;;;;;;4.35;2.92;;;;;;;;;;5088319;28;20063;-75
2021/07/05 07:15:23;;;;;;;4.95;2.60;;;;;;;;;;5076401;28;20032;-76
2021/07/05 07:20:32;;;;;;;8.55;3.30;;;;;;;;;;5078053;28;20115;-75
2021/07/05 07:23:13;;;;;;;4.13;3.00;;;;;;;;;;5095985;28;20585;-82
2021/07/05 07:25:38;;;;;;;6.18;3.05;;;;;;;;;;5094988;28;20073;-80
2021/07/05 07:28:22;;;;;;;6.15;3.60;;;;;;;;;;5095797;28;20044;-81
2021/07/05 07:30:47;;;;;;;5.10;3.20;;;;;;;;;;5095731;28;20034;-81
2021/07/05 07:34:08;;;;;;;7.18;3.00;;;;;;;;;;5096350;28;20024;-82
2021/07/05 07:36:34;;;;;;;4.18;3.10;;;;;;;;;;5076685;28;20035;-72
2021/07/05 07:39:06;;;;;;;6.03;2.92;;;;;;;;;;5089077;28;20028;-72
2021/07/05 07:41:34;;;;;;;3.88;2.83;;;;;;;;;;5094940;28;20027;-73
2021/07/05 07:44:02;;;;;;;6.03;3.00;;;;;;;;;;5095936;28;20032;-72
2021/07/05 07:46:27;;;;;;;6.90;2.70;;;;;;;;;;5094977;28;20036;-72
2021/07/05 07:49:09;;;;;;;4.47;2.67;;;;;;;;;;5076581;28;20135;-72
2021/07/05 07:51:34;;;;;;;7.80;3.50;;;;;;;;;;5083170;28;20151;-72
2021/07/05 07:54:00;;;;;;;4.47;2.78;;;;;;;;;;5090052;28;20106;-71
2021/07/05 07:56:29;;;;;;;6.18;3.03;;;;;;;;;;5074045;28;20419;-72
2021/07/05 07:58:56;;;;;;;5.45;2.97;;;;;;;;;;5094172;28;20028;-71
2021/07/05 08:01:22;;;;;;;8.02;3.00;;;;;;;;;;5090828;28;20028;-73
2021/07/05 08:03:48;;;;;;;4.60;2.85;;;;;;;;;;5062909;28;20498;-76
2021/07/05 08:06:13;;;;;;;6.30;2.92;;;;;;;;;;5094183;28;20020;-75
2021/07/05 08:08:59;;;;;;;7.13;3.10;;;;;;;;;;5090718;28;20098;-78
2021/07/05 08:11:24;;;;;;;4.43;2.97;;;;;;;;;;5075719;28;20020;-74
2021/07/05 08:13:53;;;;;;;5.40;2.88;;;;;;;;;;5082127;28;20019;-74
2021/07/05 08:16:19;;;;;;;5.40;3.10;;;;;;;;;;5093942;28;20035;-74
2021/07/05 08:18:44;;;;;;;6.75;3.10;;;;;;;;;;5090584;28;20020;-79
2021/07/05 08:21:10;;;;;;;6.97;3.38;;;;;;;;;;5094316;28;20111;-77
2021/07/05 08:23:35;;;;;;;4.38;3.00;;;;;;;;;;5088193;28;20032;-75
2021/07/05 08:26:01;;;;;;;4.03;3.03;;;;;;;;;;5092094;28;20024;-75
2021/07/05 08:28:27;;;;;;;6.00;2.83;;;;;;;;;;5093775;28;20449;-73
2021/07/05 08:30:55;;;;;;;7.13;2.80;;;;;;;;;;5094019;28;20049;-73
2021/07/05 08:33:21;;;;;;;5.45;2.95;;;;;;;;;;5094480;28;20483;-76
2021/07/05 08:35:47;;;;;;;6.15;2.92;;;;;;;;;;5093560;28;20024;-76
2021/07/05 08:38:14;;;;;;;6.28;3.00;;;;;;;;;;5093587;28;20028;-74
2021/07/05 08:40:40;;;;;;;6.47;3.38;;;;;;;;;;5089660;28;20039;-76
2021/07/05 08:43:06;;;;;;;4.07;3.17;;;;;;;;;;5094061;28;20055;-74
2021/07/05 08:45:33;;;;;;;7.78;3.08;;;;;;;;;;5094453;28;20085;-73
2021/07/05 08:48:01;;;;;;;3.95;2.92;;;;;;;;;;5075931;28;20069;-74
2021/07/05 08:53:51;;;;;;;6.32;3.20;;;;;;;;;;5092037;28;20039;-71
2021/07/05 08:56:20;;;;;;;5.32;3.35;;;;;;;;;;5094089;28;20032;-72
2021/07/05 08:58:47;;;;;;;6.88;3.30;;;;;;;;;;5093612;28;20032;-72
2021/07/05 09:01:15;;;;;;;5.25;3.05;;;;;;;;;;5092876;28;20107;-72
2021/07/05 09:03:41;;;;;;;5.43;3.13;;;;;;;;;;5091916;28;20019;-72
2021/07/05 09:06:26;;;;;;;9.75;2.90;;;;;;;;;;5093898;28;20031;-75
2021/07/05 09:08:57;;;;;;;6.60;2.95;;;;;;;;;;5093209;28;20024;-72
2021/07/05 09:11:45;;;;;;;5.70;2.88;;;;;;;;;;5093473;28;20019;-71
2021/07/05 09:14:23;;;;;;;4.85;3.08;;;;;;;;;;5093750;28;20035;-72
2021/07/05 09:16:51;;;;;;;6.70;3.40;;;;;;;;;;5093220;28;20023;-73
2021/07/05 09:19:24;;;;;;;6.45;3.22;;;;;;;;;;5092311;28;20066;-74
2021/07/05 09:22:00;;;;;;;5.35;3.15;;;;;;;;;;5090213;28;20407;-74
2021/07/05 09:24:32;;;;;;;4.97;3.47;;;;;;;;;;5081629;28;20479;-74
2021/07/05 09:27:33;;;;;;;6.65;3.33;;;;;;;;;;5093711;28;20028;-75
2021/07/05 09:30:07;;;;;;;5.47;3.13;;;;;;;;;;5090197;28;20040;-74
2021/07/05 09:32:34;;;;;;;5.72;3.00;;;;;;;;;;5092168;28;20034;-75
2021/07/05 09:35:16;;;;;;;4.88;3.13;;;;;;;;;;5085836;28;20034;-74
2021/07/05 09:37:53;;;;;;;7.50;3.05;;;;;;;;;;5088113;28;20028;-77
2021/07/05 09:40:19;;;;;;;4.68;2.80;;;;;;;;;;5093701;28;20444;-75
2021/07/05 09:42:47;;;;;;;3.88;2.80;;;;;;;;;;5081696;28;20048;-77
2021/07/05 09:45:27;;;;;;;4.55;2.78;;;;;;;;;;5050555;28;20021;-74
2021/07/05 09:48:34;;;;;;;8.90;3.40;;;;;;;;;;5089416;28;20032;-75
2021/07/05 09:51:03;;;;;;;6.07;3.30;;;;;;;;;;5089428;28;20020;-75
2021/07/05 09:53:40;;;;;;;4.38;2.85;;;;;;;;;;5083951;28;20074;-75
2021/07/05 09:56:28;;;;;;;7.85;3.40;;;;;;;;;;5091865;28;20395;-76
2021/07/05 09:59:01;;;;;;;6.22;2.88;;;;;;;;;;5092766;28;20045;-75
2021/07/05 10:01:39;;;;;;;4.03;2.80;;;;;;;;;;5091970;28;20031;-75
2021/07/05 10:04:10;;;;;;;4.53;2.70;;;;;;;;;;5092901;28;20024;-74
2021/07/05 10:06:44;;;;;;;3.60;2.92;;;;;;;;;;5092859;28;20024;-74
2021/07/05 10:09:11;;;;;;;5.60;2.80;;;;;;;;;;5080140;28;20418;-77
2021/07/05 10:11:38;;;;;;;4.95;2.90;;;;;;;;;;5086590;28;20035;-74
2021/07/05 10:14:19;;;;;;;5.22;2.88;;;;;;;;;;5089851;28;20031;-77
2021/07/05 10:16:48;;;;;;;4.82;2.70;;;;;;;;;;5088160;28;20051;-71
2021/07/05 10:19:17;;;;;;;6.03;2.95;;;;;;;;;;5083295;28;20021;-72
2021/07/05 10:22:14;;;;;;;4.85;2.72;;;;;;;;;;5079654;28;20060;-74
2021/07/05 10:24:42;;;;;;;4.78;2.88;;;;;;;;;;5076361;28;20502;-74
2021/07/05 10:27:13;;;;;;;4.85;2.65;;;;;;;;;;5086123;28;20032;-72
2021/07/05 10:29:40;;;;;;;4.68;2.97;;;;;;;;;;5083878;28;20051;-71
2021/07/05 10:32:10;;;;;;;5.43;2.70;;;;;;;;;;5088174;28;20017;-73
2021/07/05 10:34:37;;;;;;;7.72;2.70;;;;;;;;;;5087142;28;20055;-75
2021/07/05 10:37:05;;;;;;;5.15;2.50;;;;;;;;;;5080803;28;20024;-75
2021/07/05 10:39:33;;;;;;;6.07;3.63;;;;;;;;;;5087406;28;20077;-74
2021/07/05 10:42:45;;;;;;;3.42;2.78;;;;;;;;;;5085874;28;20028;-72
2021/07/05 10:45:15;;;;;;;5.88;2.83;;;;;;;;;;5095473;28;20052;-73
2021/07/05 10:47:53;;;;;;;7.15;3.08;;;;;;;;;;5090361;28;20020;-72
2021/07/05 10:50:45;;;;;;;3.65;2.47;;;;;;;;;;5082735;28;20495;-72
2021/07/05 10:53:13;;;;;;;5.85;3.10;;;;;;;;;;5082441;28;20497;-74
2021/07/05 10:55:50;;;;;;;6.82;3.15;;;;;;;;;;5096192;28;20050;-73
2021/07/05 10:58:20;;;;;;;6.97;3.28;;;;;;;;;;5090800;28;20027;-75
2021/07/05 11:00:51;;;;;;;7.18;3.40;;;;;;;;;;5095294;28;20499;-75
2021/07/05 11:03:35;;;;;;;4.75;3.42;;;;;;;;;;5096184;28;20035;-72
2021/07/05 11:06:01;;;;;;;6.72;3.40;;;;;;;;;;5077816;28;20032;-72
2021/07/05 11:08:36;;;;;;;8.35;3.53;;;;;;;;;;5093358;28;20035;-73
2021/07/05 11:11:25;;;;;;;7.93;4.18;;;;;;;;;;5087853;28;20024;-74
2021/07/05 11:14:30;;;;;;;7.65;4.38;;;;;;;;;;5088249;28;20020;-75
2021/07/05 11:17:07;;;;;;;5.47;4.13;;;;;;;;;;5088453;28;20046;-76
2021/07/05 11:19:56;;;;;;;5.05;3.85;;;;;;;;;;5073958;28;20036;-75
2021/07/05 11:22:38;;;;;;;7.07;4.10;;;;;;;;;;5082773;28;20026;-73
2021/07/05 11:25:22;;;;;;;6.28;4.07;;;;;;;;;;5084812;28;20075;-75
2021/07/05 11:27:53;;;;;;;5.18;4.07;;;;;;;;;;5069527;28;20064;-74
2021/07/05 11:30:33;;;;;;;7.82;4.30;;;;;;;;;;5050348;28;20542;-75
2021/07/05 11:33:24;;;;;;;7.88;4.40;;;;;;;;;;5055408;28;20044;-75
2021/07/05 11:35:50;;;;;;;8.57;4.55;;;;;;;;;;5055515;28;20028;-76
2021/07/05 11:38:56;;;;;;;7.90;4.85;;;;;;;;;;5053949;28;20033;-75
2021/07/05 11:41:28;;;;;;;6.75;4.25;;;;;;;;;;4974780;28;20047;-76
2021/07/05 11:43:56;;;;;;;6.20;4.00;;;;;;;;;;4991628;28;20081;-75
2021/07/05 11:46:27;;;;;;;7.30;4.80;;;;;;;;;;4974309;28;20070;-77
2021/07/05 11:48:57;;;;;;;6.55;4.55;;;;;;;;;;4976088;28;20042;-75
2021/07/05 11:51:33;;;;;;;8.32;4.78;;;;;;;;;;4988298;28;20043;-75
2021/07/05 11:54:07;;;;;;;10.38;4.85;;;;;;;;;;4982021;28;20030;-75
2021/07/05 11:56:55;;;;;;;7.43;5.13;;;;;;;;;;4981989;28;20126;-76
2021/07/05 11:59:27;;;;;;;9.48;4.88;;;;;;;;;;5052920;28;20056;-77
2021/07/05 12:02:14;;;;;;;7.55;4.93;;;;;;;;;;5055814;28;20453;-76
2021/07/05 12:04:44;;;;;;;10.40;5.72;;;;;;;;;;5057380;28;20040;-74
2021/07/05 12:07:27;;;;;;;16.08;5.80;;;;;;;;;;5065009;28;20477;-75
2021/07/05 12:09:53;;;;;;;8.20;5.30;;;;;;;;;;5055197;28;20033;-75
2021/07/05 12:12:20;;;;;;;9.15;5.43;;;;;;;;;;5057036;28;20051;-75
2021/07/05 12:14:49;;;;;;;8.00;5.53;;;;;;;;;;5071006;28;20029;-76
2021/07/05 12:17:36;;;;;;;8.10;5.85;;;;;;;;;;5047116;28;20025;-76
2021/07/05 12:20:02;;;;;;;7.97;5.43;;;;;;;;;;5055671;28;20021;-77
2021/07/05 12:22:39;;;;;;;9.30;5.40;;;;;;;;;;5054542;28;20044;-76
2021/07/05 12:25:06;;;;;;;11.75;4.68;;;;;;;;;;5070220;28;20052;-76
2021/07/05 12:27:40;;;;;;;10.27;5.05;;;;;;;;;;5075114;28;20028;-76
2021/07/05 12:30:06;;;;;;;7.65;4.20;;;;;;;;;;5094795;28;20357;-74
2021/07/05 12:32:38;;;;;;;9.30;4.68;;;;;;;;;;5094749;28;20031;-76
2021/07/05 12:35:11;;;;;;;9.70;4.47;;;;;;;;;;5091823;28;20027;-76
2021/07/05 12:37:46;;;;;;;7.05;4.25;;;;;;;;;;5092797;28;20518;-77
2021/07/05 12:40:19;;;;;;;7.13;4.20;;;;;;;;;;5080946;28;20419;-75
2021/07/05 12:43:12;;;;;;;6.30;4.30;;;;;;;;;;5073682;28;20031;-76
2021/07/05 12:46:10;;;;;;;8.55;4.30;;;;;;;;;;5093730;28;20102;-76
2021/07/05 12:48:36;;;;;;;6.85;4.45;;;;;;;;;;5071896;28;20394;-75
2021/07/05 12:51:05;;;;;;;9.80;4.50;;;;;;;;;;5073967;28;20092;-78
2021/07/05 12:53:33;;;;;;;7.38;4.10;;;;;;;;;;5082894;28;20024;-76
2021/07/05 12:56:06;;;;;;;8.43;4.53;;;;;;;;;;5093141;28;20036;-74
2021/07/05 12:58:48;;;;;;;5.20;4.15;;;;;;;;;;5074224;28;20024;-77
2021/07/05 13:01:27;;;;;;;7.30;4.30;;;;;;;;;;5084085;28;20047;-76
2021/07/05 13:04:09;;;;;;;7.30;4.47;;;;;;;;;;5084297;28;20038;-75
2021/07/05 13:07:03;;;;;;;6.20;4.03;;;;;;;;;;5081213;28;20028;-75
2021/07/05 13:09:30;;;;;;;;;;;;;;;;;;5088972;28;20027;-73
2021/07/05 13:11:58;;;;;;;6.38;4.00;;;;;;;;;;5083820;28;20295;-73
2021/07/05 13:14:33;;;;;;;8.75;4.10;;;;;;;;;;5082682;28;20123;-73
2021/07/05 13:17:25;;;;;;;9.52;4.20;;;;;;;;;;5088553;28;20024;-73
2021/07/05 13:19:51;;;;;;;5.90;3.35;;;;;;;;;;5080345;28;20039;-73
2021/07/05 13:22:25;;;;;;;5.63;3.50;;;;;;;;;;5092753;28;20479;-74
2021/07/05 13:24:55;;;;;;;4.28;3.40;;;;;;;;;;5079595;28;20475;-74
2021/07/05 13:27:44;;;;;;;4.82;3.80;;;;;;;;;;5081067;28;20024;-73
2021/07/05 13:30:15;;;;;;;6.72;3.92;;;;;;;;;;5083335;28;20021;-73
2021/07/05 13:32:55;;;;;;;7.03;3.80;;;;;;;;;;5079266;28;20028;-73
2021/07/05 13:35:30;;;;;;;6.75;4.00;;;;;;;;;;5083545;28;20020;-73
2021/07/05 13:37:59;;;;;;;6.03;3.80;;;;;;;;;;5093215;28;20105;-74
2021/07/05 13:40:26;;;;;;;7.00;4.05;;;;;;;;;;5087068;28;20474;-74
2021/07/05 13:42:59;;;;;;;9.50;4.60;;;;;;;;;;5076764;28;20020;-74
2021/07/05 13:45:31;;;;;;;7.57;4.00;;;;;;;;;;5092095;28;20055;-76
2021/07/05 13:48:09;;;;;;;5.90;3.85;;;;;;;;;;5093294;28;20039;-72
2021/07/05 13:50:40;;;;;;;8.05;3.95;;;;;;;;;;5093027;28;20452;-73
2021/07/05 13:53:30;;;;;;;6.63;4.40;;;;;;;;;;5092867;28;20032;-74
2021/07/05 13:56:17;;;;;;;7.78;4.38;;;;;;;;;;5093248;28;20364;-70
2021/07/05 13:59:01;;;;;;;6.93;4.85;;;;;;;;;;5093113;28;20048;-74
2021/07/05 14:01:28;;;;;;;;;;;;;;;;;;5082255;28;20112;-72
2021/07/05 14:04:03;;;;;;;7.05;4.40;;;;;;;;;;5073419;28;20284;-76
2021/07/05 14:06:29;;;;;;;7.47;3.97;;;;;;;;;;5091605;28;20055;-73
2021/07/05 14:08:54;;;;;;;8.88;5.22;;;;;;;;;;5074821;28;20047;-73
2021/07/05 14:11:22;;;;;;;8.40;5.25;;;;;;;;;;5072616;28;20017;-76
2021/07/05 14:13:50;;;;;;;8.55;5.13;;;;;;;;;;5090515;28;20024;-72
2021/07/05 14:16:17;;;;;;;6.65;4.97;;;;;;;;;;5065258;28;20073;-73
2021/07/05 14:18:44;;;;;;;8.07;5.03;;;;;;;;;;5082699;28;20528;-73
2021/07/05 14:21:13;;;;;;;6.57;4.97;;;;;;;;;;5092543;28;20060;-73
2021/07/05 14:23:48;;;;;;;7.30;5.00;;;;;;;;;;5092808;28;20475;-74
2021/07/05 14:26:13;;;;;;;7.90;5.35;;;;;;;;;;5080165;28;20039;-73
2021/07/05 14:28:49;;;;;;;6.55;4.95;;;;;;;;;;5071379;28;20041;-72
2021/07/05 14:31:15;;;;;;;8.45;5.30;;;;;;;;;;5072145;28;20021;-73
2021/07/05 14:33:40;;;;;;;6.75;5.00;;;;;;;;;;5069152;28;20033;-73
2021/07/05 14:36:06;;;;;;;8.70;5.10;;;;;;;;;;5070304;28;20060;-72
2021/07/05 14:38:31;;;;;;;10.18;5.70;;;;;;;;;;5070702;28;20062;-72
2021/07/05 14:40:59;;;;;;;8.13;5.93;;;;;;;;;;5071463;28;20036;-72
2021/07/05 14:43:25;;;;;;;11.57;5.50;;;;;;;;;;5071239;28;20479;-72
2021/07/05 14:45:51;;;;;;;6.25;4.95;;;;;;;;;;5051501;28;20033;-72
2021/07/05 14:48:16;;;;;;;10.93;5.15;;;;;;;;;;5051329;28;20035;-73
2021/07/05 14:50:43;;;;;;;10.00;5.88;;;;;;;;;;5051610;28;20032;-73
2021/07/05 14:53:09;;;;;;;7.15;5.95;;;;;;;;;;5058231;28;20040;-70
2021/07/05 14:55:35;;;;;;;8.63;7.03;;;;;;;;;;5071334;28;20024;-73
2021/07/05 14:58:01;;;;;;;10.23;6.57;;;;;;;;;;5071396;28;20024;-73
2021/07/05 15:00:29;;;;;;;10.70;7.20;;;;;;;;;;5053516;28;20025;-74
2021/07/05 15:02:55;;;;;;;9.27;6.70;;;;;;;;;;5066165;28;20036;-73
2021/07/05 15:05:22;;;;;;;10.40;7.95;;;;;;;;;;5062226;28;20115;-72
2021/07/05 15:07:48;;;;;;;9.52;7.90;;;;;;;;;;5070687;28;20491;-72
2021/07/05 15:10:33;;;;;;;10.00;7.63;;;;;;;;;;5060123;28;20021;-72
2021/07/05 15:13:00;;;;;;;13.32;9.10;;;;;;;;;;5071749;28;20024;-72
2021/07/05 15:15:26;;;;;;;8.52;7.63;;;;;;;;;;5073365;28;20024;-72